sensor_id;sensor_type;location;lat;lon;timestamp;P1;durP1;ratioP1;P2;durP2;ratioP2
1076;SDS011;64114;48.726;9.370;2022-11-15T00:02:14;10.23;;;8.60;;
1076;SDS011;64114;48.726;9.370;2022-11-15T00:05:00;12.47;;;9.43;;
1076;SDS011;64114;48.726;9.370;2022-11-15T00:07:47;12.50;;;8.73;;
1076;SDS011;64114;48.726;9.370;2022-11-15T00:10:42;10.93;;;9.23;;
1076;SDS011;64114;48.726;9.370;2022-11-15T00:13:29;10.57;;;8.03;;
1076;SDS011;64114;48.726;9.370;2022-11-15T00:16:17;13.13;;;9.43;;
1076;SDS011;64114;48.726;9.370;2022-11-15T00:19:04;12.77;;;9.63;;
1076;SDS011;64114;48.726;9.370;2022-11-15T00:21:50;10.73;;;8.67;;
1076;SDS011;64114;48.726;9.370;2022-11-15T00:24:37;14.87;;;9.70;;
1076;SDS011;64114;48.726;9.370;2022-11-15T00:27:24;15.17;;;9.23;;
1076;SDS011;64114;48.726;9.370;2022-11-15T00:30:12;11.33;;;8.80;;
1076;SDS011;64114;48.726;9.370;2022-11-15T00:33:01;13.27;;;9.03;;
1076;SDS011;64114;48.726;9.370;2022-11-15T00:35:49;10.40;;;8.07;;
1076;SDS011;64114;48.726;9.370;2022-11-15T00:38:36;10.47;;;8.60;;
1076;SDS011;64114;48.726;9.370;2022-11-15T00:41:23;10.13;;;8.73;;
1076;SDS011;64114;48.726;9.370;2022-11-15T00:44:10;12.10;;;8.47;;
1076;SDS011;64114;48.726;9.370;2022-11-15T00:46:58;10.43;;;9.03;;
1076;SDS011;64114;48.726;9.370;2022-11-15T00:49:44;14.47;;;8.37;;
1076;SDS011;64114;48.726;9.370;2022-11-15T00:52:30;12.10;;;8.90;;
1076;SDS011;64114;48.726;9.370;2022-11-15T00:55:17;12.00;;;8.60;;
1076;SDS011;64114;48.726;9.370;2022-11-15T00:58:04;11.63;;;8.70;;
1076;SDS011;64114;48.726;9.370;2022-11-15T01:00:51;15.03;;;9.17;;
1076;SDS011;64114;48.726;9.370;2022-11-15T01:03:39;11.57;;;8.60;;
1076;SDS011;64114;48.726;9.370;2022-11-15T01:06:26;11.10;;;9.30;;
1076;SDS011;64114;48.726;9.370;2022-11-15T01:09:14;12.90;;;9.10;;
1076;SDS011;64114;48.726;9.370;2022-11-15T01:12:01;16.47;;;9.00;;
1076;SDS011;64114;48.726;9.370;2022-11-15T01:14:49;9.47;;;8.77;;
1076;SDS011;64114;48.726;9.370;2022-11-15T01:17:37;15.50;;;11.50;;
1076;SDS011;64114;48.726;9.370;2022-11-15T01:20:25;14.27;;;10.40;;
1076;SDS011;64114;48.726;9.370;2022-11-15T01:23:11;13.77;;;9.83;;
1076;SDS011;64114;48.726;9.370;2022-11-15T01:25:58;10.63;;;8.83;;
1076;SDS011;64114;48.726;9.370;2022-11-15T01:28:45;12.80;;;9.97;;
1076;SDS011;64114;48.726;9.370;2022-11-15T01:31:32;13.07;;;10.30;;
1076;SDS011;64114;48.726;9.370;2022-11-15T01:34:19;13.33;;;10.27;;
1076;SDS011;64114;48.726;9.370;2022-11-15T01:37:07;10.23;;;8.50;;
1076;SDS011;64114;48.726;9.370;2022-11-15T01:39:54;14.00;;;9.63;;
1076;SDS011;64114;48.726;9.370;2022-11-15T01:42:40;14.60;;;8.90;;
1076;SDS011;64114;48.726;9.370;2022-11-15T01:45:28;10.70;;;9.03;;
1076;SDS011;64114;48.726;9.370;2022-11-15T01:48:14;14.00;;;8.90;;
1076;SDS011;64114;48.726;9.370;2022-11-15T01:51:02;13.20;;;9.47;;
1076;SDS011;64114;48.726;9.370;2022-11-15T01:53:55;10.77;;;8.63;;
1076;SDS011;64114;48.726;9.370;2022-11-15T01:56:48;12.57;;;8.53;;
1076;SDS011;64114;48.726;9.370;2022-11-15T01:59:39;10.17;;;8.23;;
1076;SDS011;64114;48.726;9.370;2022-11-15T02:02:28;9.73;;;7.70;;
1076;SDS011;64114;48.726;9.370;2022-11-15T02:05:14;10.97;;;8.10;;
1076;SDS011;64114;48.726;9.370;2022-11-15T02:08:01;12.10;;;9.07;;
1076;SDS011;64114;48.726;9.370;2022-11-15T02:10:49;11.63;;;8.63;;
1076;SDS011;64114;48.726;9.370;2022-11-15T02:13:35;11.83;;;9.17;;
1076;SDS011;64114;48.726;9.370;2022-11-15T02:16:25;12.23;;;8.67;;
1076;SDS011;64114;48.726;9.370;2022-11-15T02:19:28;8.97;;;7.20;;
1076;SDS011;64114;48.726;9.370;2022-11-15T02:22:29;9.73;;;7.70;;
1076;SDS011;64114;48.726;9.370;2022-11-15T02:25:29;10.77;;;8.50;;
1076;SDS011;64114;48.726;9.370;2022-11-15T02:28:32;9.70;;;8.53;;
1076;SDS011;64114;48.726;9.370;2022-11-15T02:31:32;11.00;;;8.13;;
1076;SDS011;64114;48.726;9.370;2022-11-15T02:34:26;11.63;;;7.73;;
1076;SDS011;64114;48.726;9.370;2022-11-15T02:37:17;9.50;;;7.47;;
1076;SDS011;64114;48.726;9.370;2022-11-15T02:40:13;9.70;;;7.07;;
1076;SDS011;64114;48.726;9.370;2022-11-15T02:43:10;7.77;;;7.37;;
1076;SDS011;64114;48.726;9.370;2022-11-15T02:46:17;7.80;;;7.13;;
1076;SDS011;64114;48.726;9.370;2022-11-15T02:49:32;13.13;;;8.10;;
1076;SDS011;64114;48.726;9.370;2022-11-15T02:52:20;13.00;;;7.83;;
1076;SDS011;64114;48.726;9.370;2022-11-15T02:58:22;9.23;;;7.20;;
1076;SDS011;64114;48.726;9.370;2022-11-15T03:01:37;10.77;;;7.73;;
1076;SDS011;64114;48.726;9.370;2022-11-15T03:04:33;6.67;;;5.90;;
1076;SDS011;64114;48.726;9.370;2022-11-15T03:07:28;9.77;;;7.20;;
1076;SDS011;64114;48.726;9.370;2022-11-15T03:10:19;11.07;;;7.27;;
1076;SDS011;64114;48.726;9.370;2022-11-15T03:13:14;10.63;;;6.83;;
1076;SDS011;64114;48.726;9.370;2022-11-15T03:16:07;9.77;;;7.10;;
1076;SDS011;64114;48.726;9.370;2022-11-15T03:18:58;11.57;;;7.83;;
1076;SDS011;64114;48.726;9.370;2022-11-15T03:21:52;10.97;;;7.50;;
1076;SDS011;64114;48.726;9.370;2022-11-15T03:24:41;10.30;;;7.40;;
1076;SDS011;64114;48.726;9.370;2022-11-15T03:27:31;10.60;;;7.80;;
1076;SDS011;64114;48.726;9.370;2022-11-15T03:30:22;12.00;;;7.37;;
1076;SDS011;64114;48.726;9.370;2022-11-15T03:33:09;11.10;;;7.43;;
1076;SDS011;64114;48.726;9.370;2022-11-15T03:35:57;8.27;;;6.93;;
1076;SDS011;64114;48.726;9.370;2022-11-15T03:38:46;10.50;;;6.67;;
1076;SDS011;64114;48.726;9.370;2022-11-15T03:41:34;12.90;;;8.03;;
1076;SDS011;64114;48.726;9.370;2022-11-15T03:44:30;11.37;;;8.00;;
1076;SDS011;64114;48.726;9.370;2022-11-15T03:47:23;9.77;;;7.80;;
1076;SDS011;64114;48.726;9.370;2022-11-15T03:50:13;10.07;;;7.43;;
1076;SDS011;64114;48.726;9.370;2022-11-15T03:53:03;12.47;;;7.50;;
1076;SDS011;64114;48.726;9.370;2022-11-15T03:55:50;9.80;;;7.70;;
1076;SDS011;64114;48.726;9.370;2022-11-15T03:58:37;12.93;;;7.80;;
1076;SDS011;64114;48.726;9.370;2022-11-15T04:01:23;12.00;;;8.90;;
1076;SDS011;64114;48.726;9.370;2022-11-15T04:04:10;15.10;;;9.07;;
1076;SDS011;64114;48.726;9.370;2022-11-15T04:06:57;9.52;;;7.80;;
1076;SDS011;64114;48.726;9.370;2022-11-15T04:09:43;13.63;;;9.30;;
1076;SDS011;64114;48.726;9.370;2022-11-15T04:12:49;12.43;;;8.37;;
1076;SDS011;64114;48.726;9.370;2022-11-15T04:15:35;12.47;;;9.63;;
1076;SDS011;64114;48.726;9.370;2022-11-15T04:18:22;16.57;;;10.30;;
1076;SDS011;64114;48.726;9.370;2022-11-15T04:21:09;10.77;;;8.80;;
1076;SDS011;64114;48.726;9.370;2022-11-15T04:24:13;11.07;;;8.40;;
1076;SDS011;64114;48.726;9.370;2022-11-15T04:27:00;15.03;;;8.47;;
1076;SDS011;64114;48.726;9.370;2022-11-15T04:29:48;10.63;;;7.50;;
1076;SDS011;64114;48.726;9.370;2022-11-15T04:32:34;10.83;;;8.07;;
1076;SDS011;64114;48.726;9.370;2022-11-15T04:35:21;9.70;;;7.60;;
1076;SDS011;64114;48.726;9.370;2022-11-15T04:38:08;9.77;;;7.53;;
1076;SDS011;64114;48.726;9.370;2022-11-15T04:40:55;11.87;;;7.30;;
1076;SDS011;64114;48.726;9.370;2022-11-15T04:43:42;12.60;;;9.27;;
1076;SDS011;64114;48.726;9.370;2022-11-15T04:46:29;11.93;;;9.40;;
1076;SDS011;64114;48.726;9.370;2022-11-15T04:49:16;13.03;;;7.80;;
1076;SDS011;64114;48.726;9.370;2022-11-15T04:52:02;13.30;;;8.23;;
1076;SDS011;64114;48.726;9.370;2022-11-15T04:54:49;10.43;;;7.60;;
1076;SDS011;64114;48.726;9.370;2022-11-15T04:57:35;12.87;;;8.33;;
1076;SDS011;64114;48.726;9.370;2022-11-15T05:00:22;8.40;;;6.77;;
1076;SDS011;64114;48.726;9.370;2022-11-15T05:03:10;13.00;;;7.73;;
1076;SDS011;64114;48.726;9.370;2022-11-15T05:06:15;11.57;;;8.70;;
1076;SDS011;64114;48.726;9.370;2022-11-15T05:09:01;10.37;;;8.07;;
1076;SDS011;64114;48.726;9.370;2022-11-15T05:11:49;12.00;;;9.37;;
1076;SDS011;64114;48.726;9.370;2022-11-15T05:14:35;11.10;;;8.20;;
1076;SDS011;64114;48.726;9.370;2022-11-15T05:17:22;12.37;;;8.73;;
1076;SDS011;64114;48.726;9.370;2022-11-15T05:20:10;13.77;;;9.17;;
1076;SDS011;64114;48.726;9.370;2022-11-15T05:22:57;11.53;;;8.93;;
1076;SDS011;64114;48.726;9.370;2022-11-15T05:25:44;9.27;;;7.37;;
1076;SDS011;64114;48.726;9.370;2022-11-15T05:28:31;10.20;;;8.47;;
1076;SDS011;64114;48.726;9.370;2022-11-15T05:31:18;10.23;;;7.47;;
1076;SDS011;64114;48.726;9.370;2022-11-15T05:34:04;9.87;;;7.50;;
1076;SDS011;64114;48.726;9.370;2022-11-15T05:36:52;9.40;;;7.43;;
1076;SDS011;64114;48.726;9.370;2022-11-15T05:39:39;12.07;;;8.57;;
1076;SDS011;64114;48.726;9.370;2022-11-15T05:42:26;11.40;;;9.10;;
1076;SDS011;64114;48.726;9.370;2022-11-15T05:45:13;9.50;;;9.00;;
1076;SDS011;64114;48.726;9.370;2022-11-15T05:48:00;12.00;;;9.33;;
1076;SDS011;64114;48.726;9.370;2022-11-15T05:50:52;12.83;;;9.43;;
1076;SDS011;64114;48.726;9.370;2022-11-15T05:53:40;9.03;;;8.13;;
1076;SDS011;64114;48.726;9.370;2022-11-15T05:56:28;11.33;;;8.23;;
1076;SDS011;64114;48.726;9.370;2022-11-15T05:59:15;11.17;;;7.90;;
1076;SDS011;64114;48.726;9.370;2022-11-15T06:02:03;10.60;;;8.30;;
1076;SDS011;64114;48.726;9.370;2022-11-15T06:04:50;12.77;;;9.50;;
1076;SDS011;64114;48.726;9.370;2022-11-15T06:07:36;9.30;;;8.47;;
1076;SDS011;64114;48.726;9.370;2022-11-15T06:10:23;9.40;;;8.07;;
1076;SDS011;64114;48.726;9.370;2022-11-15T06:13:10;17.63;;;9.07;;
1076;SDS011;64114;48.726;9.370;2022-11-15T06:15:56;11.83;;;9.47;;
1076;SDS011;64114;48.726;9.370;2022-11-15T06:18:43;13.47;;;8.13;;
1076;SDS011;64114;48.726;9.370;2022-11-15T06:21:29;13.13;;;9.73;;
1076;SDS011;64114;48.726;9.370;2022-11-15T06:24:16;12.83;;;9.30;;
1076;SDS011;64114;48.726;9.370;2022-11-15T06:27:03;17.73;;;9.77;;
1076;SDS011;64114;48.726;9.370;2022-11-15T06:29:49;14.93;;;9.00;;
1076;SDS011;64114;48.726;9.370;2022-11-15T06:32:35;14.13;;;10.30;;
1076;SDS011;64114;48.726;9.370;2022-11-15T06:35:22;13.87;;;9.57;;
1076;SDS011;64114;48.726;9.370;2022-11-15T06:38:09;17.67;;;10.30;;
1076;SDS011;64114;48.726;9.370;2022-11-15T06:41:00;16.60;;;10.50;;
1076;SDS011;64114;48.726;9.370;2022-11-15T06:43:49;13.40;;;9.03;;
1076;SDS011;64114;48.726;9.370;2022-11-15T06:46:35;13.30;;;9.47;;
1076;SDS011;64114;48.726;9.370;2022-11-15T06:49:21;11.40;;;9.43;;
1076;SDS011;64114;48.726;9.370;2022-11-15T06:52:07;14.47;;;9.07;;
1076;SDS011;64114;48.726;9.370;2022-11-15T06:54:53;14.80;;;10.43;;
1076;SDS011;64114;48.726;9.370;2022-11-15T06:57:45;10.80;;;7.93;;
1076;SDS011;64114;48.726;9.370;2022-11-15T07:00:34;8.50;;;7.20;;
1076;SDS011;64114;48.726;9.370;2022-11-15T07:03:20;11.60;;;8.27;;
1076;SDS011;64114;48.726;9.370;2022-11-15T07:06:07;11.83;;;8.33;;
1076;SDS011;64114;48.726;9.370;2022-11-15T07:08:54;15.40;;;9.77;;
1076;SDS011;64114;48.726;9.370;2022-11-15T07:11:40;11.77;;;10.17;;
1076;SDS011;64114;48.726;9.370;2022-11-15T07:14:27;15.10;;;8.93;;
1076;SDS011;64114;48.726;9.370;2022-11-15T07:17:15;9.43;;;8.50;;
1076;SDS011;64114;48.726;9.370;2022-11-15T07:20:01;13.57;;;9.50;;
1076;SDS011;64114;48.726;9.370;2022-11-15T07:22:49;16.20;;;9.57;;
1076;SDS011;64114;48.726;9.370;2022-11-15T07:25:35;13.20;;;10.30;;
1076;SDS011;64114;48.726;9.370;2022-11-15T07:28:21;14.53;;;10.57;;
1076;SDS011;64114;48.726;9.370;2022-11-15T07:31:08;13.83;;;10.17;;
1076;SDS011;64114;48.726;9.370;2022-11-15T07:33:56;14.20;;;9.80;;
1076;SDS011;64114;48.726;9.370;2022-11-15T07:36:42;11.43;;;9.10;;
1076;SDS011;64114;48.726;9.370;2022-11-15T07:39:28;14.40;;;9.30;;
1076;SDS011;64114;48.726;9.370;2022-11-15T07:42:15;9.73;;;8.40;;
1076;SDS011;64114;48.726;9.370;2022-11-15T07:45:31;11.70;;;9.07;;
1076;SDS011;64114;48.726;9.370;2022-11-15T07:48:19;11.20;;;8.10;;
1076;SDS011;64114;48.726;9.370;2022-11-15T07:51:07;10.67;;;8.00;;
1076;SDS011;64114;48.726;9.370;2022-11-15T07:53:58;13.03;;;9.40;;
1076;SDS011;64114;48.726;9.370;2022-11-15T07:56:44;10.77;;;7.70;;
1076;SDS011;64114;48.726;9.370;2022-11-15T07:59:31;12.63;;;8.60;;
1076;SDS011;64114;48.726;9.370;2022-11-15T08:02:17;9.77;;;7.33;;
1076;SDS011;64114;48.726;9.370;2022-11-15T08:05:04;10.70;;;8.20;;
1076;SDS011;64114;48.726;9.370;2022-11-15T08:07:52;11.17;;;8.67;;
1076;SDS011;64114;48.726;9.370;2022-11-15T08:10:41;8.40;;;7.87;;
1076;SDS011;64114;48.726;9.370;2022-11-15T08:13:28;10.73;;;8.43;;
1076;SDS011;64114;48.726;9.370;2022-11-15T08:16:15;13.57;;;8.10;;
1076;SDS011;64114;48.726;9.370;2022-11-15T08:19:01;14.07;;;6.83;;
1076;SDS011;64114;48.726;9.370;2022-11-15T08:21:47;10.27;;;6.70;;
1076;SDS011;64114;48.726;9.370;2022-11-15T08:24:35;7.80;;;7.03;;
1076;SDS011;64114;48.726;9.370;2022-11-15T08:27:22;13.10;;;8.60;;
1076;SDS011;64114;48.726;9.370;2022-11-15T08:30:09;7.53;;;6.93;;
1076;SDS011;64114;48.726;9.370;2022-11-15T08:32:57;7.40;;;6.13;;
1076;SDS011;64114;48.726;9.370;2022-11-15T08:35:44;7.83;;;6.40;;
1076;SDS011;64114;48.726;9.370;2022-11-15T08:38:31;9.87;;;7.10;;
1076;SDS011;64114;48.726;9.370;2022-11-15T08:41:20;7.33;;;6.03;;
1076;SDS011;64114;48.726;9.370;2022-11-15T08:44:11;10.67;;;6.93;;
1076;SDS011;64114;48.726;9.370;2022-11-15T08:46:58;9.13;;;7.07;;
1076;SDS011;64114;48.726;9.370;2022-11-15T08:49:44;10.90;;;7.47;;
1076;SDS011;64114;48.726;9.370;2022-11-15T08:52:31;9.23;;;8.03;;
1076;SDS011;64114;48.726;9.370;2022-11-15T08:55:18;9.07;;;7.70;;
1076;SDS011;64114;48.726;9.370;2022-11-15T08:58:09;13.27;;;9.13;;
1076;SDS011;64114;48.726;9.370;2022-11-15T09:00:56;10.20;;;8.13;;
1076;SDS011;64114;48.726;9.370;2022-11-15T09:03:43;11.73;;;8.93;;
1076;SDS011;64114;48.726;9.370;2022-11-15T09:06:29;14.43;;;8.30;;
1076;SDS011;64114;48.726;9.370;2022-11-15T09:09:15;11.40;;;8.33;;
1076;SDS011;64114;48.726;9.370;2022-11-15T09:12:02;15.07;;;9.50;;
1076;SDS011;64114;48.726;9.370;2022-11-15T09:14:50;14.23;;;9.63;;
1076;SDS011;64114;48.726;9.370;2022-11-15T09:17:37;11.50;;;8.97;;
1076;SDS011;64114;48.726;9.370;2022-11-15T09:20:23;10.80;;;9.10;;
1076;SDS011;64114;48.726;9.370;2022-11-15T09:23:09;11.17;;;9.43;;
1076;SDS011;64114;48.726;9.370;2022-11-15T09:25:59;13.07;;;9.30;;
1076;SDS011;64114;48.726;9.370;2022-11-15T09:28:47;12.60;;;9.53;;
1076;SDS011;64114;48.726;9.370;2022-11-15T09:31:35;17.00;;;11.67;;
1076;SDS011;64114;48.726;9.370;2022-11-15T09:34:21;15.57;;;11.30;;
1076;SDS011;64114;48.726;9.370;2022-11-15T09:37:08;18.40;;;11.70;;
1076;SDS011;64114;48.726;9.370;2022-11-15T09:39:54;18.77;;;11.57;;
1076;SDS011;64114;48.726;9.370;2022-11-15T09:42:46;20.40;;;12.00;;
1076;SDS011;64114;48.726;9.370;2022-11-15T09:45:47;18.10;;;10.90;;
1076;SDS011;64114;48.726;9.370;2022-11-15T09:49:06;14.23;;;9.93;;
1076;SDS011;64114;48.726;9.370;2022-11-15T09:51:56;14.90;;;10.00;;
1076;SDS011;64114;48.726;9.370;2022-11-15T09:54:28;15.60;;;10.87;;
1076;SDS011;64114;48.726;9.370;2022-11-15T09:57:21;15.43;;;11.30;;
1076;SDS011;64114;48.726;9.370;2022-11-15T10:00:03;14.80;;;10.47;;
1076;SDS011;64114;48.726;9.370;2022-11-15T10:03:06;17.40;;;10.43;;
1076;SDS011;64114;48.726;9.370;2022-11-15T10:05:39;14.57;;;9.50;;
1076;SDS011;64114;48.726;9.370;2022-11-15T10:08:15;18.50;;;10.83;;
1076;SDS011;64114;48.726;9.370;2022-11-15T10:10:53;12.57;;;10.00;;
1076;SDS011;64114;48.726;9.370;2022-11-15T10:13:44;11.90;;;9.53;;
1076;SDS011;64114;48.726;9.370;2022-11-15T10:16:17;12.17;;;8.37;;
1076;SDS011;64114;48.726;9.370;2022-11-15T10:18:58;13.60;;;8.53;;
1076;SDS011;64114;48.726;9.370;2022-11-15T10:21:37;11.83;;;8.13;;
1076;SDS011;64114;48.726;9.370;2022-11-15T10:24:15;11.20;;;8.40;;
1076;SDS011;64114;48.726;9.370;2022-11-15T10:26:46;10.57;;;8.17;;
1076;SDS011;64114;48.726;9.370;2022-11-15T10:29:18;10.43;;;8.00;;
1076;SDS011;64114;48.726;9.370;2022-11-15T10:31:52;12.70;;;8.33;;
1076;SDS011;64114;48.726;9.370;2022-11-15T10:34:20;17.20;;;9.17;;
1076;SDS011;64114;48.726;9.370;2022-11-15T10:36:55;12.00;;;8.57;;
1076;SDS011;64114;48.726;9.370;2022-11-15T10:39:24;15.43;;;10.07;;
1076;SDS011;64114;48.726;9.370;2022-11-15T10:41:54;10.67;;;9.07;;
1076;SDS011;64114;48.726;9.370;2022-11-15T10:44:23;11.40;;;9.03;;
1076;SDS011;64114;48.726;9.370;2022-11-15T10:50:05;11.50;;;8.40;;
1076;SDS011;64114;48.726;9.370;2022-11-15T10:52:36;13.43;;;10.30;;
1076;SDS011;64114;48.726;9.370;2022-11-15T10:55:21;11.93;;;9.93;;
1076;SDS011;64114;48.726;9.370;2022-11-15T10:57:54;9.63;;;8.97;;
1076;SDS011;64114;48.726;9.370;2022-11-15T11:00:27;14.07;;;8.40;;
1076;SDS011;64114;48.726;9.370;2022-11-15T11:03:01;11.53;;;9.03;;
1076;SDS011;64114;48.726;9.370;2022-11-15T11:05:30;16.00;;;9.43;;
1076;SDS011;64114;48.726;9.370;2022-11-15T11:08:19;11.50;;;9.10;;
1076;SDS011;64114;48.726;9.370;2022-11-15T11:10:52;20.17;;;8.97;;
1076;SDS011;64114;48.726;9.370;2022-11-15T11:13:29;11.17;;;8.80;;
1076;SDS011;64114;48.726;9.370;2022-11-15T11:16:00;11.53;;;7.90;;
1076;SDS011;64114;48.726;9.370;2022-11-15T11:18:55;10.93;;;8.27;;
1076;SDS011;64114;48.726;9.370;2022-11-15T11:21:34;10.97;;;8.77;;
1076;SDS011;64114;48.726;9.370;2022-11-15T11:24:11;11.70;;;8.43;;
1076;SDS011;64114;48.726;9.370;2022-11-15T11:26:45;10.90;;;8.50;;
1076;SDS011;64114;48.726;9.370;2022-11-15T11:29:30;11.30;;;8.03;;
1076;SDS011;64114;48.726;9.370;2022-11-15T11:32:09;11.00;;;8.00;;
1076;SDS011;64114;48.726;9.370;2022-11-15T11:34:54;12.20;;;7.80;;
1076;SDS011;64114;48.726;9.370;2022-11-15T11:37:31;10.00;;;8.40;;
1076;SDS011;64114;48.726;9.370;2022-11-15T11:40:11;7.57;;;7.17;;
1076;SDS011;64114;48.726;9.370;2022-11-15T11:42:50;10.20;;;7.90;;
1076;SDS011;64114;48.726;9.370;2022-11-15T11:45:28;11.73;;;8.67;;
1076;SDS011;64114;48.726;9.370;2022-11-15T11:48:20;14.73;;;7.70;;
1076;SDS011;64114;48.726;9.370;2022-11-15T11:51:03;11.23;;;8.33;;
1076;SDS011;64114;48.726;9.370;2022-11-15T11:53:37;10.43;;;9.20;;
1076;SDS011;64114;48.726;9.370;2022-11-15T11:56:14;11.70;;;8.50;;
1076;SDS011;64114;48.726;9.370;2022-11-15T11:58:47;14.63;;;9.43;;
1076;SDS011;64114;48.726;9.370;2022-11-15T12:01:16;13.10;;;8.97;;
1076;SDS011;64114;48.726;9.370;2022-11-15T12:03:51;12.70;;;8.50;;
1076;SDS011;64114;48.726;9.370;2022-11-15T12:06:24;12.90;;;10.40;;
1076;SDS011;64114;48.726;9.370;2022-11-15T12:09:00;12.57;;;9.87;;
1076;SDS011;64114;48.726;9.370;2022-11-15T12:11:35;16.13;;;10.00;;
1076;SDS011;64114;48.726;9.370;2022-11-15T12:14:21;11.00;;;9.67;;
1076;SDS011;64114;48.726;9.370;2022-11-15T12:16:56;11.80;;;10.57;;
1076;SDS011;64114;48.726;9.370;2022-11-15T12:19:24;12.83;;;9.63;;
1076;SDS011;64114;48.726;9.370;2022-11-15T12:21:54;12.27;;;9.60;;
1076;SDS011;64114;48.726;9.370;2022-11-15T12:24:28;13.03;;;9.87;;
1076;SDS011;64114;48.726;9.370;2022-11-15T12:27:04;13.23;;;10.13;;
1076;SDS011;64114;48.726;9.370;2022-11-15T12:29:35;13.40;;;9.30;;
1076;SDS011;64114;48.726;9.370;2022-11-15T12:32:05;10.70;;;8.53;;
1076;SDS011;64114;48.726;9.370;2022-11-15T12:34:46;10.13;;;8.50;;
1076;SDS011;64114;48.726;9.370;2022-11-15T12:37:46;17.83;;;10.70;;
1076;SDS011;64114;48.726;9.370;2022-11-15T12:40:21;13.77;;;9.50;;
1076;SDS011;64114;48.726;9.370;2022-11-15T12:42:58;14.27;;;9.97;;
1076;SDS011;64114;48.726;9.370;2022-11-15T12:45:31;12.73;;;9.87;;
1076;SDS011;64114;48.726;9.370;2022-11-15T12:51:15;11.57;;;8.40;;
1076;SDS011;64114;48.726;9.370;2022-11-15T12:53:43;10.30;;;8.60;;
1076;SDS011;64114;48.726;9.370;2022-11-15T12:56:18;12.13;;;8.57;;
1076;SDS011;64114;48.726;9.370;2022-11-15T12:58:51;14.30;;;8.90;;
1076;SDS011;64114;48.726;9.370;2022-11-15T13:04:25;14.00;;;8.93;;
1076;SDS011;64114;48.726;9.370;2022-11-15T13:06:55;12.47;;;7.87;;
1076;SDS011;64114;48.726;9.370;2022-11-15T13:15:31;10.30;;;8.57;;
1076;SDS011;64114;48.726;9.370;2022-11-15T13:21:20;9.43;;;8.33;;
1076;SDS011;64114;48.726;9.370;2022-11-15T13:24:10;10.83;;;6.90;;
1076;SDS011;64114;48.726;9.370;2022-11-15T13:26:40;12.17;;;6.50;;
1076;SDS011;64114;48.726;9.370;2022-11-15T13:29:14;8.53;;;6.63;;
1076;SDS011;64114;48.726;9.370;2022-11-15T13:31:45;12.53;;;6.77;;
1076;SDS011;64114;48.726;9.370;2022-11-15T13:34:26;8.10;;;6.40;;
1076;SDS011;64114;48.726;9.370;2022-11-15T13:37:27;8.33;;;5.87;;
1076;SDS011;64114;48.726;9.370;2022-11-15T13:42:49;5.67;;;4.80;;
1076;SDS011;64114;48.726;9.370;2022-11-15T13:45:17;6.97;;;5.77;;
1076;SDS011;64114;48.726;9.370;2022-11-15T13:47:51;7.37;;;5.53;;
1076;SDS011;64114;48.726;9.370;2022-11-15T13:50:22;6.10;;;4.93;;
1076;SDS011;64114;48.726;9.370;2022-11-15T13:52:55;6.37;;;5.60;;
1076;SDS011;64114;48.726;9.370;2022-11-15T13:55:26;5.60;;;5.33;;
1076;SDS011;64114;48.726;9.370;2022-11-15T13:57:56;7.97;;;4.83;;
1076;SDS011;64114;48.726;9.370;2022-11-15T14:00:30;8.67;;;5.43;;
1076;SDS011;64114;48.726;9.370;2022-11-15T14:03:07;8.00;;;5.20;;
1076;SDS011;64114;48.726;9.370;2022-11-15T14:05:43;6.90;;;5.10;;
1076;SDS011;64114;48.726;9.370;2022-11-15T14:08:21;5.67;;;4.37;;
1076;SDS011;64114;48.726;9.370;2022-11-15T14:11:05;8.10;;;5.60;;
1076;SDS011;64114;48.726;9.370;2022-11-15T14:13:34;6.67;;;5.40;;
1076;SDS011;64114;48.726;9.370;2022-11-15T14:16:12;7.60;;;5.40;;
1076;SDS011;64114;48.726;9.370;2022-11-15T14:18:44;10.13;;;6.20;;
1076;SDS011;64114;48.726;9.370;2022-11-15T14:21:14;6.53;;;5.13;;
1076;SDS011;64114;48.726;9.370;2022-11-15T14:23:42;7.00;;;5.47;;
1076;SDS011;64114;48.726;9.370;2022-11-15T14:26:11;8.20;;;5.50;;
1076;SDS011;64114;48.726;9.370;2022-11-15T14:28:54;7.90;;;5.60;;
1076;SDS011;64114;48.726;9.370;2022-11-15T14:31:22;10.10;;;6.57;;
1076;SDS011;64114;48.726;9.370;2022-11-15T14:33:52;9.40;;;6.00;;
1076;SDS011;64114;48.726;9.370;2022-11-15T14:36:20;8.73;;;6.30;;
1076;SDS011;64114;48.726;9.370;2022-11-15T14:38:48;9.17;;;5.97;;
1076;SDS011;64114;48.726;9.370;2022-11-15T14:41:17;12.93;;;6.10;;
1076;SDS011;64114;48.726;9.370;2022-11-15T14:43:46;12.30;;;5.83;;
1076;SDS011;64114;48.726;9.370;2022-11-15T14:46:14;10.10;;;5.43;;
1076;SDS011;64114;48.726;9.370;2022-11-15T14:48:42;7.40;;;5.47;;
1076;SDS011;64114;48.726;9.370;2022-11-15T14:51:12;9.67;;;5.87;;
1076;SDS011;64114;48.726;9.370;2022-11-15T14:53:42;8.27;;;5.40;;
1076;SDS011;64114;48.726;9.370;2022-11-15T14:56:10;12.07;;;4.70;;
1076;SDS011;64114;48.726;9.370;2022-11-15T14:58:38;12.00;;;6.00;;
1076;SDS011;64114;48.726;9.370;2022-11-15T15:01:10;11.10;;;5.37;;
1076;SDS011;64114;48.726;9.370;2022-11-15T15:03:40;13.47;;;5.43;;
1076;SDS011;64114;48.726;9.370;2022-11-15T15:06:10;13.20;;;8.93;;
1076;SDS011;64114;48.726;9.370;2022-11-15T15:08:45;12.43;;;6.33;;
1076;SDS011;64114;48.726;9.370;2022-11-15T15:11:15;8.33;;;6.90;;
1076;SDS011;64114;48.726;9.370;2022-11-15T15:13:45;8.10;;;6.20;;
1076;SDS011;64114;48.726;9.370;2022-11-15T15:16:13;9.53;;;7.00;;
1076;SDS011;64114;48.726;9.370;2022-11-15T15:18:41;10.90;;;7.20;;
1076;SDS011;64114;48.726;9.370;2022-11-15T15:21:15;10.17;;;6.40;;
1076;SDS011;64114;48.726;9.370;2022-11-15T15:23:48;8.83;;;5.57;;
1076;SDS011;64114;48.726;9.370;2022-11-15T15:26:16;6.13;;;5.20;;
1076;SDS011;64114;48.726;9.370;2022-11-15T15:28:46;7.50;;;5.10;;
1076;SDS011;64114;48.726;9.370;2022-11-15T15:31:15;7.90;;;6.60;;
1076;SDS011;64114;48.726;9.370;2022-11-15T15:33:42;22.73;;;15.90;;
1076;SDS011;64114;48.726;9.370;2022-11-15T15:36:10;24.33;;;15.50;;
1076;SDS011;64114;48.726;9.370;2022-11-15T15:38:39;19.33;;;12.50;;
1076;SDS011;64114;48.726;9.370;2022-11-15T15:41:10;35.17;;;21.70;;
1076;SDS011;64114;48.726;9.370;2022-11-15T15:43:38;28.27;;;17.50;;
1076;SDS011;64114;48.726;9.370;2022-11-15T15:46:07;19.87;;;10.97;;
1076;SDS011;64114;48.726;9.370;2022-11-15T15:48:37;16.27;;;8.97;;
1076;SDS011;64114;48.726;9.370;2022-11-15T15:51:06;8.80;;;7.07;;
1076;SDS011;64114;48.726;9.370;2022-11-15T15:53:43;8.30;;;7.00;;
1076;SDS011;64114;48.726;9.370;2022-11-15T15:56:12;8.43;;;6.37;;
1076;SDS011;64114;48.726;9.370;2022-11-15T15:58:40;8.37;;;6.60;;
1076;SDS011;64114;48.726;9.370;2022-11-15T16:01:08;10.20;;;7.23;;
1076;SDS011;64114;48.726;9.370;2022-11-15T16:03:36;10.53;;;7.43;;
1076;SDS011;64114;48.726;9.370;2022-11-15T16:06:03;12.57;;;9.30;;
1076;SDS011;64114;48.726;9.370;2022-11-15T16:08:32;9.17;;;8.07;;
1076;SDS011;64114;48.726;9.370;2022-11-15T16:11:20;9.20;;;7.80;;
1076;SDS011;64114;48.726;9.370;2022-11-15T16:13:48;16.90;;;11.00;;
1076;SDS011;64114;48.726;9.370;2022-11-15T16:16:16;10.93;;;7.77;;
1076;SDS011;64114;48.726;9.370;2022-11-15T16:18:45;10.30;;;7.37;;
1076;SDS011;64114;48.726;9.370;2022-11-15T16:21:13;12.70;;;9.20;;
1076;SDS011;64114;48.726;9.370;2022-11-15T16:23:41;10.53;;;7.60;;
1076;SDS011;64114;48.726;9.370;2022-11-15T16:26:10;13.30;;;9.40;;
1076;SDS011;64114;48.726;9.370;2022-11-15T16:28:46;14.07;;;10.47;;
1076;SDS011;64114;48.726;9.370;2022-11-15T16:31:14;10.23;;;8.63;;
1076;SDS011;64114;48.726;9.370;2022-11-15T16:33:44;12.20;;;9.83;;
1076;SDS011;64114;48.726;9.370;2022-11-15T16:36:15;10.60;;;8.90;;
1076;SDS011;64114;48.726;9.370;2022-11-15T16:38:53;8.73;;;6.90;;
1076;SDS011;64114;48.726;9.370;2022-11-15T16:41:21;9.00;;;6.13;;
1076;SDS011;64114;48.726;9.370;2022-11-15T16:43:50;8.13;;;6.17;;
1076;SDS011;64114;48.726;9.370;2022-11-15T16:46:19;7.20;;;4.93;;
1076;SDS011;64114;48.726;9.370;2022-11-15T16:48:48;8.20;;;5.57;;